Weather at Nest of Eagles Airport

Public forecast

Using degrees Fahrenheit for public forecast. Weather courtesy of forecast.io.

Closest aviation weather report (METAR) to Nest of Eagles Airport

Closest report is Sawyer County Airport, 18.8 nm (34.8 km) NE.

2024/02/29 17:53 (retrieved 51 minutes ago)

KHYR 291753Z AUTO 12011G17KT 10SM CLR M06/M16 A3016 RMK AO2 SLP244 T10561156 11056 21211 58036

Closest aviation forecast (TAF) to Nest of Eagles Airport

Closest forecast is Sawyer County Airport, 18.8 nm (34.8 km) NE.

2024/02/29 18:27 (retrieved 17 minutes ago)

TAF KHYR 291724Z 2918/0118 16010G17KT P6SM BKN120 FM292300 14008KT P6SM SKC FM010300 18009KT P6SM SKC WS020/22039KT FM011200 18012G23KT P6SM SKC